createdAt,value
2022-11-29T00:02:06.730Z,3.20
2022-11-29T00:04:36.461Z,3.35
2022-11-29T00:07:06.376Z,2.95
2022-11-29T00:09:35.911Z,3.58
2022-11-29T00:12:14.576Z,3.70
2022-11-29T00:14:45.026Z,3.10
2022-11-29T00:17:15.469Z,3.10
2022-11-29T00:19:46.377Z,3.10
2022-11-29T00:22:16.728Z,3.10
2022-11-29T00:24:46.562Z,3.03
2022-11-29T00:27:16.605Z,3.00
2022-11-29T00:29:46.289Z,3.17
2022-11-29T00:32:16.187Z,3.05
2022-11-29T00:34:46.423Z,3.30
2022-11-29T00:37:17.480Z,3.30
2022-11-29T00:39:47.310Z,3.05
2022-11-29T00:42:16.860Z,3.30
2022-11-29T00:44:49.101Z,3.00
2022-11-29T00:47:19.170Z,2.97
2022-11-29T00:49:49.437Z,2.90
2022-11-29T00:52:19.499Z,2.42
2022-11-29T00:54:52.834Z,3.35
2022-11-29T00:57:24.337Z,2.65
2022-11-29T00:59:55.061Z,2.70
2022-11-29T01:02:25.344Z,2.75
2022-11-29T01:04:54.887Z,2.58
2022-11-29T01:07:24.878Z,2.95
2022-11-29T01:09:54.871Z,3.13
2022-11-29T01:12:24.927Z,2.65
2022-11-29T01:14:54.942Z,3.17
2022-11-29T01:17:24.943Z,2.50
2022-11-29T01:19:54.552Z,2.55
2022-11-29T01:22:24.454Z,2.95
2022-11-29T01:24:54.072Z,2.47
2022-11-29T01:27:24.326Z,2.50
2022-11-29T01:29:54.210Z,2.10
2022-11-29T01:32:24.199Z,2.10
2022-11-29T01:34:54.184Z,2.40
2022-11-29T01:37:24.295Z,2.45
2022-11-29T01:39:54.424Z,2.38
2022-11-29T01:42:24.603Z,2.30
2022-11-29T01:44:54.613Z,2.67
2022-11-29T01:47:24.474Z,2.42
2022-11-29T01:49:54.106Z,2.40
2022-11-29T01:52:29.135Z,2.33
2022-11-29T01:55:02.428Z,2.58
2022-11-29T01:57:34.316Z,2.47
2022-11-29T02:00:09.402Z,2.53
2022-11-29T02:02:49.048Z,2.65
2022-11-29T02:05:19.571Z,2.97
2022-11-29T02:07:51.231Z,2.40
2022-11-29T02:10:22.648Z,2.47
2022-11-29T02:13:03.413Z,2.42
2022-11-29T02:15:45.473Z,2.38
2022-11-29T02:18:16.695Z,2.53
2022-11-29T02:20:56.115Z,2.25
2022-11-29T02:23:44.412Z,2.30
2022-11-29T02:26:43.072Z,2.15
2022-11-29T02:29:39.303Z,2.47
2022-11-29T02:32:32.276Z,2.28
2022-11-29T02:35:20.420Z,2.50
2022-11-29T02:37:49.960Z,2.25
2022-11-29T02:40:53.257Z,2.30
2022-11-29T02:43:36.555Z,2.60
2022-11-29T02:46:30.998Z,2.42
2022-11-29T02:49:05.249Z,2.13
2022-11-29T02:51:47.410Z,2.40
2022-11-29T02:54:18.113Z,2.10
2022-11-29T02:57:10.453Z,2.00
2022-11-29T03:00:19.676Z,2.35
2022-11-29T03:03:14.154Z,2.17
2022-11-29T03:05:46.032Z,2.10
2022-11-29T03:08:16.278Z,2.28
2022-11-29T03:10:45.987Z,2.30
2022-11-29T03:13:43.427Z,2.40
2022-11-29T03:16:48.406Z,2.10
2022-11-29T03:19:52.792Z,2.05
2022-11-29T03:22:33.532Z,2.30
2022-11-29T03:25:41.823Z,2.00
2022-11-29T03:28:34.062Z,2.42
2022-11-29T03:31:08.233Z,1.98
2022-11-29T03:33:38.402Z,2.25
2022-11-29T03:36:20.665Z,2.15
2022-11-29T03:38:50.793Z,2.13
2022-11-29T03:41:36.957Z,2.28
2022-11-29T03:44:19.476Z,2.00
2022-11-29T03:47:06.536Z,2.05
2022-11-29T03:49:46.922Z,1.83
2022-11-29T03:52:21.407Z,3.70
2022-11-29T03:54:51.492Z,3.15
2022-11-29T03:57:23.715Z,3.22
2022-11-29T03:59:53.705Z,2.55
2022-11-29T04:02:38.467Z,2.78
2022-11-29T04:05:17.989Z,2.47
2022-11-29T04:08:01.503Z,2.10
2022-11-29T04:10:52.653Z,2.17
2022-11-29T04:13:56.522Z,2.38
2022-11-29T04:17:00.439Z,2.55
2022-11-29T04:19:48.767Z,2.15
2022-11-29T04:22:36.978Z,1.92
2022-11-29T04:25:54.131Z,2.17
2022-11-29T04:28:59.353Z,2.03
2022-11-29T04:31:35.042Z,1.80
2022-11-29T04:34:26.305Z,2.10
2022-11-29T04:36:56.447Z,1.70
2022-11-29T04:39:32.382Z,1.95
2022-11-29T04:42:39.923Z,1.80
2022-11-29T04:45:12.433Z,1.98
2022-11-29T04:48:06.750Z,1.92
2022-11-29T04:51:00.812Z,1.77
2022-11-29T04:56:30.943Z,1.83
2022-11-29T04:59:39.204Z,1.77
2022-11-29T05:02:17.685Z,1.90
2022-11-29T05:05:09.977Z,1.80
2022-11-29T05:07:59.101Z,1.88
2022-11-29T05:10:50.057Z,2.00
2022-11-29T05:13:46.653Z,1.70
2022-11-29T05:16:43.426Z,1.90
2022-11-29T05:19:13.420Z,1.90
2022-11-29T05:22:00.826Z,1.90
2022-11-29T05:24:42.166Z,2.20
2022-11-29T05:27:36.749Z,2.08
2022-11-29T05:30:08.875Z,2.10
2022-11-29T05:32:38.897Z,1.98
2022-11-29T05:35:39.582Z,2.00
2022-11-29T05:38:09.155Z,1.90
2022-11-29T05:40:56.926Z,1.85
2022-11-29T05:43:46.776Z,1.90
2022-11-29T05:46:31.101Z,1.95
2022-11-29T05:49:25.561Z,1.40
2022-11-29T05:52:23.247Z,2.08
2022-11-29T05:55:28.719Z,2.40
2022-11-29T05:58:10.506Z,1.77
2022-11-29T06:01:06.049Z,2.03
2022-11-29T06:03:38.878Z,1.90
2022-11-29T06:06:12.937Z,1.80
2022-11-29T06:08:59.176Z,2.00
2022-11-29T06:11:53.952Z,1.70
2022-11-29T06:14:29.237Z,2.50
2022-11-29T06:17:17.123Z,2.60
2022-11-29T06:20:00.503Z,1.75
2022-11-29T06:22:39.766Z,2.45
2022-11-29T06:25:21.535Z,1.90
2022-11-29T06:28:14.773Z,1.92
2022-11-29T06:31:12.245Z,2.57
2022-11-29T06:34:03.571Z,2.25
2022-11-29T06:37:10.114Z,1.83
2022-11-29T06:39:40.549Z,1.63
2022-11-29T06:42:10.536Z,1.80
2022-11-29T06:44:43.603Z,1.85
2022-11-29T06:47:52.046Z,1.88
2022-11-29T06:50:48.954Z,1.70
2022-11-29T06:53:40.433Z,1.55
2022-11-29T06:56:10.632Z,1.90
2022-11-29T06:58:40.887Z,1.77
2022-11-29T07:01:43.145Z,1.85
2022-11-29T07:04:24.374Z,1.77
2022-11-29T07:06:54.091Z,1.80
2022-11-29T07:09:26.634Z,1.50
2022-11-29T07:11:59.367Z,1.73
2022-11-29T07:14:29.934Z,1.48
2022-11-29T07:17:00.047Z,1.70
2022-11-29T07:19:36.036Z,1.63
2022-11-29T07:22:06.228Z,1.70
2022-11-29T07:25:13.222Z,1.77
2022-11-29T07:27:55.383Z,1.60
2022-11-29T07:30:33.092Z,1.58
2022-11-29T07:33:21.072Z,1.73
2022-11-29T07:35:51.081Z,1.63
2022-11-29T07:38:44.373Z,1.33
2022-11-29T07:41:22.711Z,1.45
2022-11-29T07:43:52.478Z,1.45
2022-11-29T07:46:22.494Z,1.50
2022-11-29T07:48:52.142Z,1.60
2022-11-29T07:51:22.237Z,1.55
2022-11-29T07:53:52.357Z,1.42
2022-11-29T07:56:22.001Z,1.83
2022-11-29T07:58:52.063Z,1.27
2022-11-29T08:01:22.353Z,1.50
2022-11-29T08:03:56.200Z,1.50
2022-11-29T08:06:28.267Z,1.55
2022-11-29T08:09:01.528Z,1.10
2022-11-29T08:11:31.780Z,1.50
2022-11-29T08:14:02.259Z,1.50
2022-11-29T08:16:31.853Z,1.40
2022-11-29T08:19:01.382Z,1.20
2022-11-29T08:21:31.076Z,1.23
2022-11-29T08:24:01.363Z,1.40
2022-11-29T08:26:31.865Z,1.60
2022-11-29T08:29:01.597Z,1.20
2022-11-29T08:31:31.624Z,1.30
2022-11-29T08:34:02.991Z,1.42
2022-11-29T08:36:33.012Z,1.42
2022-11-29T08:39:09.682Z,1.45
2022-11-29T08:41:39.586Z,1.63
2022-11-29T08:44:09.871Z,1.45
2022-11-29T08:46:57.934Z,1.30
2022-11-29T08:49:27.610Z,1.48
2022-11-29T08:52:17.326Z,1.20
2022-11-29T08:54:47.245Z,1.23
2022-11-29T08:57:39.321Z,1.48
2022-11-29T09:00:08.029Z,1.40
2022-11-29T09:02:38.545Z,1.30
2022-11-29T09:05:08.767Z,1.98
2022-11-29T09:07:38.874Z,1.48
2022-11-29T09:10:10.040Z,1.50
2022-11-29T09:12:45.370Z,1.40
2022-11-29T09:15:15.658Z,1.48
2022-11-29T09:17:45.787Z,1.63
2022-11-29T09:20:15.538Z,1.77
2022-11-29T09:22:45.502Z,1.40
2022-11-29T09:25:15.528Z,1.70
2022-11-29T09:27:46.408Z,1.55
2022-11-29T09:30:20.589Z,1.70
2022-11-29T09:32:53.424Z,1.50
2022-11-29T09:35:23.114Z,1.33
2022-11-29T09:37:53.120Z,1.50
2022-11-29T09:40:29.087Z,1.50
2022-11-29T09:42:58.635Z,1.60
2022-11-29T09:45:33.891Z,1.55
2022-11-29T09:48:20.321Z,1.85
2022-11-29T09:51:20.369Z,1.80
2022-11-29T09:53:50.063Z,1.63
2022-11-29T09:56:33.270Z,1.55
2022-11-29T09:59:13.031Z,1.60
2022-11-29T10:01:47.002Z,1.70
2022-11-29T10:04:22.465Z,1.65
2022-11-29T10:07:10.223Z,1.73
2022-11-29T10:09:47.841Z,5.70
2022-11-29T10:12:25.220Z,3.00
2022-11-29T10:15:09.864Z,2.80
2022-11-29T10:17:55.246Z,3.13
2022-11-29T10:20:27.014Z,2.90
2022-11-29T10:23:10.848Z,2.33
2022-11-29T10:25:51.063Z,2.30
2022-11-29T10:28:22.440Z,3.10
2022-11-29T10:30:54.645Z,2.42
2022-11-29T10:33:32.312Z,2.25
2022-11-29T10:36:05.697Z,2.22
2022-11-29T10:38:35.605Z,2.55
2022-11-29T10:41:15.136Z,2.83
2022-11-29T10:43:44.852Z,2.13
2022-11-29T10:46:24.823Z,2.10
2022-11-29T10:48:57.112Z,2.00
2022-11-29T10:51:26.721Z,2.30
2022-11-29T10:54:20.478Z,2.13
2022-11-29T10:56:50.035Z,2.20
2022-11-29T10:59:27.668Z,2.15
2022-11-29T11:01:57.582Z,1.85
2022-11-29T11:04:30.761Z,2.10
2022-11-29T11:07:02.553Z,2.03
2022-11-29T11:09:49.647Z,1.80
2022-11-29T11:12:24.002Z,1.92
2022-11-29T11:14:54.062Z,2.30
2022-11-29T11:17:30.733Z,1.88
2022-11-29T11:20:09.488Z,1.92
2022-11-29T11:22:41.021Z,2.17
2022-11-29T11:25:32.233Z,2.00
2022-11-29T11:28:18.657Z,2.00
2022-11-29T11:31:09.221Z,1.92
2022-11-29T11:33:46.678Z,2.10
2022-11-29T11:36:24.777Z,1.95
2022-11-29T11:38:55.300Z,1.70
2022-11-29T11:41:50.462Z,2.28
2022-11-29T11:44:50.652Z,2.20
2022-11-29T11:47:27.883Z,1.85
2022-11-29T11:50:04.544Z,1.77
2022-11-29T11:52:50.339Z,2.22
2022-11-29T11:55:23.955Z,1.80
2022-11-29T11:58:16.846Z,1.90
2022-11-29T12:03:48.669Z,2.13
2022-11-29T12:06:26.184Z,1.80
2022-11-29T12:08:59.896Z,1.83
2022-11-29T12:11:29.979Z,1.70
2022-11-29T12:14:00.325Z,1.95
2022-11-29T12:16:37.416Z,1.83
2022-11-29T12:19:15.754Z,1.83
2022-11-29T12:21:46.544Z,1.95
2022-11-29T12:24:30.764Z,2.30
2022-11-29T12:27:02.221Z,2.00
2022-11-29T12:29:33.119Z,1.90
2022-11-29T12:32:07.025Z,2.30
2022-11-29T12:34:50.082Z,1.85
2022-11-29T12:37:37.892Z,1.90
2022-11-29T12:40:25.253Z,1.75
2022-11-29T12:43:25.879Z,1.85
2022-11-29T12:46:22.568Z,2.17
2022-11-29T12:49:34.831Z,2.05
2022-11-29T12:52:13.331Z,2.20
2022-11-29T12:54:55.582Z,1.77
2022-11-29T12:57:38.428Z,2.00
2022-11-29T13:00:16.562Z,2.22
2022-11-29T13:03:19.250Z,1.90
2022-11-29T13:05:58.560Z,1.92
2022-11-29T13:08:43.120Z,1.90
2022-11-29T13:11:27.919Z,1.98
2022-11-29T13:14:34.835Z,1.60
2022-11-29T13:16:53.594Z,2.17
2022-11-29T13:19:23.544Z,1.88
2022-11-29T13:22:11.186Z,2.05
2022-11-29T13:24:55.636Z,1.60
2022-11-29T13:27:36.247Z,1.98
2022-11-29T13:30:06.800Z,1.90
2022-11-29T13:32:51.240Z,1.90
2022-11-29T13:35:39.436Z,1.77
2022-11-29T13:38:19.648Z,2.10
2022-11-29T13:40:59.890Z,1.70
2022-11-29T13:43:30.725Z,1.98
2022-11-29T13:46:03.917Z,1.90
2022-11-29T13:48:48.117Z,1.90
2022-11-29T13:51:27.940Z,1.88
2022-11-29T13:53:58.486Z,1.70
2022-11-29T13:56:46.927Z,1.65
2022-11-29T13:59:28.514Z,1.70
2022-11-29T14:01:59.572Z,2.08
2022-11-29T14:04:42.325Z,1.90
2022-11-29T14:07:19.609Z,2.03
2022-11-29T14:09:59.909Z,2.13
2022-11-29T14:12:50.451Z,1.70
2022-11-29T14:15:28.942Z,2.13
2022-11-29T14:17:58.943Z,1.58
2022-11-29T14:20:31.250Z,1.73
2022-11-29T14:23:07.107Z,2.10
2022-11-29T14:25:58.392Z,1.88
2022-11-29T14:28:41.607Z,1.77
2022-11-29T14:31:11.922Z,1.70
2022-11-29T14:33:57.777Z,2.13
2022-11-29T14:36:51.227Z,1.90
2022-11-29T14:39:20.840Z,1.80
2022-11-29T14:42:05.529Z,1.70
2022-11-29T14:44:35.596Z,1.88
2022-11-29T14:47:14.400Z,1.80
2022-11-29T14:49:45.073Z,1.73
2022-11-29T14:52:19.072Z,1.42
2022-11-29T14:55:03.665Z,2.00
2022-11-29T14:57:51.253Z,1.80
2022-11-29T15:00:31.135Z,1.70
2022-11-29T15:03:23.651Z,1.70
2022-11-29T15:06:18.564Z,1.77
2022-11-29T15:09:05.292Z,1.83
2022-11-29T15:12:05.867Z,1.70
2022-11-29T15:15:05.608Z,1.85
2022-11-29T15:18:01.781Z,1.80
2022-11-29T15:21:07.209Z,1.60
2022-11-29T15:23:44.330Z,1.85
2022-11-29T15:26:21.717Z,1.83
2022-11-29T15:28:51.718Z,1.80
2022-11-29T15:31:21.713Z,1.80
2022-11-29T15:33:52.575Z,1.45
2022-11-29T15:36:23.374Z,1.90
2022-11-29T15:38:54.992Z,1.90
2022-11-29T15:41:29.019Z,1.67
2022-11-29T15:44:07.583Z,1.70
2022-11-29T15:46:37.233Z,1.88
2022-11-29T15:49:25.868Z,2.08
2022-11-29T15:52:01.097Z,1.80
2022-11-29T15:54:44.072Z,1.63
2022-11-29T15:57:25.452Z,2.03
2022-11-29T16:00:16.250Z,2.45
2022-11-29T16:03:04.998Z,2.38
2022-11-29T16:05:34.520Z,1.63
2022-11-29T16:08:08.746Z,1.95
2022-11-29T16:10:47.290Z,2.00
2022-11-29T16:13:31.805Z,2.38
2022-11-29T16:16:23.412Z,1.95
2022-11-29T16:18:53.081Z,2.78
2022-11-29T16:21:27.894Z,2.10
2022-11-29T16:23:57.726Z,2.20
2022-11-29T16:26:31.241Z,2.63
2022-11-29T16:31:38.329Z,2.20
2022-11-29T16:34:22.848Z,2.08
2022-11-29T16:37:08.190Z,2.17
2022-11-29T16:39:39.489Z,2.25
2022-11-29T16:42:09.580Z,1.95
2022-11-29T16:44:42.189Z,2.45
2022-11-29T16:47:27.377Z,2.25
2022-11-29T16:50:21.470Z,2.17
2022-11-29T16:55:26.596Z,2.55
2022-11-29T16:57:56.162Z,2.58
2022-11-29T17:00:33.245Z,2.30
2022-11-29T17:03:02.796Z,2.17
2022-11-29T17:05:32.241Z,2.05
2022-11-29T17:08:02.059Z,2.20
2022-11-29T17:10:32.966Z,2.47
2022-11-29T17:13:05.502Z,2.05
2022-11-29T17:15:36.328Z,2.13
2022-11-29T17:18:05.957Z,2.03
2022-11-29T17:20:35.508Z,2.35
2022-11-29T17:23:05.062Z,2.25
2022-11-29T17:25:34.624Z,2.20
2022-11-29T17:28:04.219Z,2.10
2022-11-29T17:30:33.794Z,2.67
2022-11-29T17:33:03.755Z,2.47
2022-11-29T17:35:33.762Z,2.38
2022-11-29T17:38:03.423Z,2.00
2022-11-29T17:40:32.910Z,2.30
2022-11-29T17:43:02.860Z,2.25
2022-11-29T17:45:32.621Z,2.20
2022-11-29T17:48:02.570Z,2.05
2022-11-29T17:50:32.156Z,2.47
2022-11-29T17:53:02.181Z,2.30
2022-11-29T17:55:32.241Z,2.10
2022-11-29T17:58:01.884Z,2.17
2022-11-29T18:00:31.397Z,2.40
2022-11-29T18:03:01.298Z,2.13
2022-11-29T18:05:34.559Z,2.20
2022-11-29T18:08:06.497Z,2.00
2022-11-29T18:10:37.423Z,2.00
2022-11-29T18:13:07.458Z,1.65
2022-11-29T18:15:37.613Z,2.22
2022-11-29T18:18:07.154Z,2.25
2022-11-29T18:20:37.585Z,2.30
2022-11-29T18:23:08.242Z,1.95
2022-11-29T18:25:39.446Z,2.13
2022-11-29T18:28:12.335Z,2.13
2022-11-29T18:30:42.456Z,1.90
2022-11-29T18:33:12.078Z,2.30
2022-11-29T18:35:41.677Z,1.80
2022-11-29T18:38:16.075Z,1.80
2022-11-29T18:40:46.840Z,1.90
2022-11-29T18:43:17.986Z,1.88
2022-11-29T18:45:48.080Z,2.10
2022-11-29T18:48:18.116Z,2.40
2022-11-29T18:50:48.170Z,1.77
2022-11-29T18:53:18.296Z,2.00
2022-11-29T18:55:48.335Z,1.98
2022-11-29T18:58:18.481Z,1.67
2022-11-29T19:00:48.523Z,2.00
2022-11-29T19:03:18.538Z,1.92
2022-11-29T19:05:55.108Z,2.10
2022-11-29T19:08:26.641Z,1.90
2022-11-29T19:10:56.759Z,1.88
2022-11-29T19:13:26.373Z,1.80
2022-11-29T19:15:56.497Z,1.80
2022-11-29T19:18:26.599Z,2.05
2022-11-29T19:20:56.735Z,1.70
2022-11-29T19:23:26.260Z,1.80
2022-11-29T19:25:56.217Z,1.80
2022-11-29T19:28:26.289Z,1.80
2022-11-29T19:30:56.423Z,1.45
2022-11-29T19:33:26.028Z,2.00
2022-11-29T19:35:55.470Z,1.40
2022-11-29T19:38:25.014Z,1.85
2022-11-29T19:40:54.488Z,1.98
2022-11-29T19:43:23.977Z,1.70
2022-11-29T19:45:53.936Z,1.55
2022-11-29T19:48:23.957Z,1.67
2022-11-29T19:50:53.984Z,1.75
2022-11-29T19:53:24.069Z,1.50
2022-11-29T19:55:54.126Z,1.60
2022-11-29T19:58:24.477Z,1.73
2022-11-29T20:00:54.603Z,1.70
2022-11-29T20:03:24.629Z,1.30
2022-11-29T20:05:57.762Z,1.40
2022-11-29T20:08:27.632Z,1.50
2022-11-29T20:10:57.061Z,1.80
2022-11-29T20:13:26.608Z,1.60
2022-11-29T20:15:56.668Z,1.55
2022-11-29T20:18:26.261Z,1.30
2022-11-29T20:20:55.728Z,1.48
2022-11-29T20:23:25.197Z,1.45
2022-11-29T20:25:56.049Z,1.55
2022-11-29T20:28:26.025Z,1.35
2022-11-29T20:30:55.780Z,1.83
2022-11-29T20:33:26.596Z,1.40
2022-11-29T20:36:15.334Z,1.42
2022-11-29T20:39:06.514Z,1.30
2022-11-29T20:41:51.270Z,1.30
2022-11-29T20:44:46.273Z,1.50
2022-11-29T20:47:19.289Z,1.17
2022-11-29T20:49:49.376Z,1.25
2022-11-29T20:52:29.549Z,1.30
2022-11-29T20:54:59.009Z,1.38
2022-11-29T20:57:28.936Z,1.33
2022-11-29T20:59:58.578Z,1.40
2022-11-29T21:02:28.576Z,1.25
2022-11-29T21:04:58.288Z,1.35
2022-11-29T21:07:27.921Z,1.70
2022-11-29T21:10:01.061Z,1.38
2022-11-29T21:15:01.503Z,1.20
2022-11-29T21:17:33.741Z,1.30
2022-11-29T21:20:03.929Z,1.20
2022-11-29T21:22:39.690Z,1.60
2022-11-29T21:25:12.519Z,1.10
2022-11-29T21:27:42.896Z,1.40
2022-11-29T21:30:19.622Z,1.20
2022-11-29T21:32:49.965Z,0.90
2022-11-29T21:35:20.016Z,1.48
2022-11-29T21:37:50.068Z,1.50
2022-11-29T21:40:22.466Z,1.10
2022-11-29T21:42:52.556Z,1.20
2022-11-29T21:45:22.229Z,1.27
2022-11-29T21:47:52.239Z,1.05
2022-11-29T21:50:21.889Z,1.30
2022-11-29T21:52:53.352Z,1.25
2022-11-29T21:55:22.833Z,1.20
2022-11-29T21:57:52.309Z,1.30
2022-11-29T22:00:22.558Z,1.20
2022-11-29T22:02:52.179Z,1.10
2022-11-29T22:05:21.701Z,1.20
2022-11-29T22:07:51.735Z,1.38
2022-11-29T22:10:22.072Z,1.40
2022-11-29T22:12:52.771Z,1.40
2022-11-29T22:15:25.020Z,1.02
2022-11-29T22:17:54.952Z,1.33
2022-11-29T22:20:25.393Z,1.23
2022-11-29T22:22:58.664Z,1.30
2022-11-29T22:27:58.139Z,1.17
2022-11-29T22:30:28.532Z,1.42
2022-11-29T22:32:58.150Z,1.10
2022-11-29T22:35:29.677Z,1.38
2022-11-29T22:37:59.704Z,1.20
2022-11-29T22:40:29.567Z,1.27
2022-11-29T22:42:59.585Z,1.30
2022-11-29T22:45:29.155Z,1.27
2022-11-29T22:47:59.086Z,1.52
2022-11-29T22:50:33.572Z,1.17
2022-11-29T22:53:03.619Z,1.27
2022-11-29T22:55:33.196Z,1.38
2022-11-29T22:58:02.715Z,1.30
2022-11-29T23:00:33.259Z,1.25
2022-11-29T23:03:02.828Z,1.33
2022-11-29T23:05:32.826Z,1.50
2022-11-29T23:08:02.412Z,1.52
2022-11-29T23:10:33.170Z,1.30
2022-11-29T23:13:04.072Z,1.27
2022-11-29T23:15:33.747Z,1.70
2022-11-29T23:18:03.243Z,1.60
2022-11-29T23:20:33.306Z,1.50
2022-11-29T23:23:03.340Z,1.40
2022-11-29T23:25:38.397Z,1.60
2022-11-29T23:28:08.022Z,1.50
2022-11-29T23:30:38.037Z,1.63
2022-11-29T23:33:07.557Z,1.52
2022-11-29T23:35:38.027Z,1.55
2022-11-29T23:38:08.023Z,1.67
2022-11-29T23:40:37.608Z,1.40
2022-11-29T23:43:07.059Z,1.75
2022-11-29T23:45:39.825Z,1.80
2022-11-29T23:48:09.479Z,1.63
2022-11-29T23:50:39.447Z,1.67
2022-11-29T23:53:09.470Z,1.70
2022-11-29T23:55:39.518Z,1.92
2022-11-29T23:58:09.231Z,2.30
